Terminal Aerodrome Forecast
Issued by NWS Mt. Holly, NJ

Home | Current Version | Previous Version | Text Only | Print | Product List | Glossary On
Versions: 1 2 3 4 5 6 7 8 9 10 11 12 13 14 15 16 17 18 19 20 21
000
FTUS41 KPHI 210800 AAA
TAFILG
TAF AMD
KILG 210813Z 2108/2206 VRB03KT P6SM SCT012
      TEMPO 2109/2112 BKN012
     FM211200 VRB02KT 6SM BR SCT020
      TEMPO 2112/2115 4SM BR BKN020
     FM211500 21005KT P6SM SCT020 BKN200
     FM211800 24007KT P6SM BKN250
     FM220500 28008KT P6SM SCT050=

USA.gov is the U.S. government's official web portal to all federal, state and local government web resources and services.